sensor_id;sensor_type;location;lat;lon;timestamp;P1;durP1;ratioP1;P2;durP2;ratioP2
34541;SDS011;20784;51.332;12.410;2022-08-21T00:01:26;40.88;;;31.70;;
34541;SDS011;20784;51.332;12.410;2022-08-21T00:04:10;41.15;;;31.08;;
34541;SDS011;20784;51.332;12.410;2022-08-21T00:07:11;40.58;;;31.00;;
34541;SDS011;20784;51.332;12.410;2022-08-21T00:09:41;40.80;;;32.47;;
34541;SDS011;20784;51.332;12.410;2022-08-21T00:15:28;37.47;;;30.48;;
34541;SDS011;20784;51.332;12.410;2022-08-21T00:18:21;37.88;;;29.98;;
34541;SDS011;20784;51.332;12.410;2022-08-21T00:21:21;39.80;;;31.23;;
34541;SDS011;20784;51.332;12.410;2022-08-21T00:23:53;41.38;;;31.55;;
34541;SDS011;20784;51.332;12.410;2022-08-21T00:26:38;37.80;;;29.65;;
34541;SDS011;20784;51.332;12.410;2022-08-21T00:29:12;37.53;;;30.30;;
34541;SDS011;20784;51.332;12.410;2022-08-21T00:41:52;31.92;;;26.15;;
34541;SDS011;20784;51.332;12.410;2022-08-21T00:45:01;27.67;;;24.48;;
34541;SDS011;20784;51.332;12.410;2022-08-21T00:50:36;27.20;;;23.63;;
34541;SDS011;20784;51.332;12.410;2022-08-21T00:53:15;29.77;;;22.48;;
34541;SDS011;20784;51.332;12.410;2022-08-21T00:56:03;27.35;;;23.00;;
34541;SDS011;20784;51.332;12.410;2022-08-21T00:58:46;27.48;;;22.08;;
34541;SDS011;20784;51.332;12.410;2022-08-21T01:04:10;26.02;;;20.48;;
34541;SDS011;20784;51.332;12.410;2022-08-21T01:06:47;24.42;;;20.77;;
34541;SDS011;20784;51.332;12.410;2022-08-21T01:09:29;25.80;;;20.90;;
34541;SDS011;20784;51.332;12.410;2022-08-21T01:15:26;26.60;;;20.58;;
34541;SDS011;20784;51.332;12.410;2022-08-21T01:18:19;23.13;;;19.38;;
34541;SDS011;20784;51.332;12.410;2022-08-21T01:21:17;22.42;;;18.48;;
34541;SDS011;20784;51.332;12.410;2022-08-21T01:32:56;20.33;;;17.02;;
34541;SDS011;20784;51.332;12.410;2022-08-21T01:35:45;21.88;;;18.00;;
34541;SDS011;20784;51.332;12.410;2022-08-21T01:41:21;21.75;;;17.88;;
34541;SDS011;20784;51.332;12.410;2022-08-21T01:44:43;22.90;;;17.33;;
34541;SDS011;20784;51.332;12.410;2022-08-21T01:47:53;19.00;;;16.92;;
34541;SDS011;20784;51.332;12.410;2022-08-21T01:50:33;19.98;;;16.70;;
34541;SDS011;20784;51.332;12.410;2022-08-21T01:53:04;21.55;;;17.33;;
34541;SDS011;20784;51.332;12.410;2022-08-21T01:55:57;20.77;;;17.17;;
34541;SDS011;20784;51.332;12.410;2022-08-21T01:58:26;21.48;;;17.73;;
34541;SDS011;20784;51.332;12.410;2022-08-21T02:01:06;21.95;;;17.27;;
34541;SDS011;20784;51.332;12.410;2022-08-21T02:04:22;18.83;;;16.48;;
34541;SDS011;20784;51.332;12.410;2022-08-21T02:07:00;19.48;;;16.38;;
34541;SDS011;20784;51.332;12.410;2022-08-21T02:09:43;21.20;;;17.05;;
34541;SDS011;20784;51.332;12.410;2022-08-21T02:12:11;18.20;;;15.80;;
34541;SDS011;20784;51.332;12.410;2022-08-21T02:14:56;17.38;;;15.57;;
34541;SDS011;20784;51.332;12.410;2022-08-21T02:18:35;18.20;;;15.23;;
34541;SDS011;20784;51.332;12.410;2022-08-21T02:23:56;16.40;;;13.10;;
34541;SDS011;20784;51.332;12.410;2022-08-21T02:26:39;18.30;;;13.27;;
34541;SDS011;20784;51.332;12.410;2022-08-21T02:29:12;18.23;;;12.70;;
34541;SDS011;20784;51.332;12.410;2022-08-21T02:31:47;15.98;;;13.50;;
34541;SDS011;20784;51.332;12.410;2022-08-21T02:34:46;16.83;;;12.73;;
34541;SDS011;20784;51.332;12.410;2022-08-21T02:40:42;15.40;;;12.70;;
34541;SDS011;20784;51.332;12.410;2022-08-21T02:43:53;15.93;;;13.20;;
34541;SDS011;20784;51.332;12.410;2022-08-21T02:46:45;20.38;;;12.63;;
34541;SDS011;20784;51.332;12.410;2022-08-21T02:49:30;19.80;;;12.25;;
34541;SDS011;20784;51.332;12.410;2022-08-21T02:51:58;17.83;;;12.32;;
34541;SDS011;20784;51.332;12.410;2022-08-21T02:54:48;16.15;;;12.77;;
34541;SDS011;20784;51.332;12.410;2022-08-21T02:57:35;15.15;;;11.40;;
34541;SDS011;20784;51.332;12.410;2022-08-21T03:03:16;16.42;;;12.00;;
34541;SDS011;20784;51.332;12.410;2022-08-21T03:08:51;17.80;;;11.57;;
34541;SDS011;20784;51.332;12.410;2022-08-21T03:20:45;20.38;;;10.88;;
34541;SDS011;20784;51.332;12.410;2022-08-21T03:23:22;14.63;;;10.30;;
34541;SDS011;20784;51.332;12.410;2022-08-21T03:29:03;15.55;;;10.00;;
34541;SDS011;20784;51.332;12.410;2022-08-21T03:34:42;12.30;;;10.10;;
34541;SDS011;20784;51.332;12.410;2022-08-21T03:44:26;14.07;;;8.75;;
34541;SDS011;20784;51.332;12.410;2022-08-21T03:47:18;12.68;;;8.18;;
34541;SDS011;20784;51.332;12.410;2022-08-21T03:50:20;10.23;;;6.63;;
34541;SDS011;20784;51.332;12.410;2022-08-21T03:53:19;11.32;;;7.32;;
34541;SDS011;20784;51.332;12.410;2022-08-21T03:56:00;20.60;;;7.25;;
34541;SDS011;20784;51.332;12.410;2022-08-21T03:58:53;13.27;;;6.90;;
34541;SDS011;20784;51.332;12.410;2022-08-21T04:01:24;15.18;;;6.57;;
34541;SDS011;20784;51.332;12.410;2022-08-21T04:04:36;12.18;;;6.88;;
34541;SDS011;20784;51.332;12.410;2022-08-21T04:10:24;11.57;;;5.97;;
34541;SDS011;20784;51.332;12.410;2022-08-21T04:13:01;9.95;;;6.10;;
34541;SDS011;20784;51.332;12.410;2022-08-21T04:15:45;12.95;;;6.63;;
34541;SDS011;20784;51.332;12.410;2022-08-21T04:18:36;14.32;;;6.65;;
34541;SDS011;20784;51.332;12.410;2022-08-21T04:21:02;8.95;;;6.28;;
34541;SDS011;20784;51.332;12.410;2022-08-21T04:23:39;10.05;;;5.90;;
34541;SDS011;20784;51.332;12.410;2022-08-21T04:26:14;16.95;;;6.10;;
34541;SDS011;20784;51.332;12.410;2022-08-21T04:31:33;10.95;;;5.68;;
34541;SDS011;20784;51.332;12.410;2022-08-21T04:36:59;9.65;;;5.32;;
34541;SDS011;20784;51.332;12.410;2022-08-21T04:39:49;9.75;;;4.78;;
34541;SDS011;20784;51.332;12.410;2022-08-21T04:46:07;13.18;;;5.40;;
34541;SDS011;20784;51.332;12.410;2022-08-21T04:52:00;11.77;;;5.25;;
34541;SDS011;20784;51.332;12.410;2022-08-21T04:54:53;8.93;;;4.70;;
34541;SDS011;20784;51.332;12.410;2022-08-21T05:01:12;6.97;;;4.47;;
34541;SDS011;20784;51.332;12.410;2022-08-21T05:03:52;9.85;;;4.40;;
34541;SDS011;20784;51.332;12.410;2022-08-21T05:06:28;8.00;;;4.07;;
34541;SDS011;20784;51.332;12.410;2022-08-21T05:09:05;8.27;;;4.00;;
34541;SDS011;20784;51.332;12.410;2022-08-21T05:11:36;12.02;;;4.07;;
34541;SDS011;20784;51.332;12.410;2022-08-21T05:14:10;9.32;;;4.72;;
34541;SDS011;20784;51.332;12.410;2022-08-21T05:16:39;7.53;;;4.18;;
34541;SDS011;20784;51.332;12.410;2022-08-21T05:19:12;7.15;;;4.05;;
34541;SDS011;20784;51.332;12.410;2022-08-21T05:21:43;8.75;;;4.22;;
34541;SDS011;20784;51.332;12.410;2022-08-21T05:27:37;10.10;;;4.32;;
34541;SDS011;20784;51.332;12.410;2022-08-21T05:30:16;13.93;;;4.60;;
34541;SDS011;20784;51.332;12.410;2022-08-21T05:32:42;12.57;;;4.68;;
34541;SDS011;20784;51.332;12.410;2022-08-21T05:35:08;9.68;;;4.18;;
34541;SDS011;20784;51.332;12.410;2022-08-21T05:37:34;7.90;;;4.45;;
34541;SDS011;20784;51.332;12.410;2022-08-21T05:42:35;8.85;;;4.43;;
34541;SDS011;20784;51.332;12.410;2022-08-21T05:45:00;9.35;;;3.90;;
34541;SDS011;20784;51.332;12.410;2022-08-21T05:47:29;14.98;;;5.03;;
34541;SDS011;20784;51.332;12.410;2022-08-21T05:50:00;10.82;;;4.43;;
34541;SDS011;20784;51.332;12.410;2022-08-21T05:52:54;10.85;;;4.68;;
34541;SDS011;20784;51.332;12.410;2022-08-21T05:55:20;13.63;;;4.45;;
34541;SDS011;20784;51.332;12.410;2022-08-21T05:57:57;13.52;;;5.05;;
34541;SDS011;20784;51.332;12.410;2022-08-21T06:00:26;8.60;;;4.22;;
34541;SDS011;20784;51.332;12.410;2022-08-21T06:03:51;12.10;;;4.03;;
34541;SDS011;20784;51.332;12.410;2022-08-21T06:12:22;9.98;;;4.30;;
34541;SDS011;20784;51.332;12.410;2022-08-21T06:14:48;7.20;;;3.92;;
34541;SDS011;20784;51.332;12.410;2022-08-21T06:24:11;10.95;;;4.30;;
34541;SDS011;20784;51.332;12.410;2022-08-21T06:30:12;10.48;;;4.03;;
34541;SDS011;20784;51.332;12.410;2022-08-21T06:33:06;7.13;;;3.70;;
34541;SDS011;20784;51.332;12.410;2022-08-21T06:41:09;11.05;;;4.22;;
34541;SDS011;20784;51.332;12.410;2022-08-21T06:44:02;11.02;;;4.18;;
34541;SDS011;20784;51.332;12.410;2022-08-21T06:46:29;8.70;;;4.18;;
34541;SDS011;20784;51.332;12.410;2022-08-21T06:49:01;8.48;;;3.85;;
34541;SDS011;20784;51.332;12.410;2022-08-21T06:51:58;9.38;;;4.40;;
34541;SDS011;20784;51.332;12.410;2022-08-21T06:55:02;13.23;;;4.60;;
34541;SDS011;20784;51.332;12.410;2022-08-21T06:57:44;10.38;;;4.68;;
34541;SDS011;20784;51.332;12.410;2022-08-21T07:00:42;16.00;;;4.45;;
34541;SDS011;20784;51.332;12.410;2022-08-21T07:03:34;10.73;;;4.03;;
34541;SDS011;20784;51.332;12.410;2022-08-21T07:06:40;10.20;;;4.07;;
34541;SDS011;20784;51.332;12.410;2022-08-21T07:09:36;10.60;;;4.03;;
34541;SDS011;20784;51.332;12.410;2022-08-21T07:15:03;13.27;;;4.35;;
34541;SDS011;20784;51.332;12.410;2022-08-21T07:17:46;10.88;;;3.95;;
34541;SDS011;20784;51.332;12.410;2022-08-21T07:20:17;14.02;;;4.45;;
34541;SDS011;20784;51.332;12.410;2022-08-21T07:22:43;11.23;;;4.40;;
34541;SDS011;20784;51.332;12.410;2022-08-21T07:25:09;9.90;;;3.53;;
34541;SDS011;20784;51.332;12.410;2022-08-21T07:27:35;8.30;;;3.72;;
34541;SDS011;20784;51.332;12.410;2022-08-21T07:30:08;10.00;;;4.00;;
34541;SDS011;20784;51.332;12.410;2022-08-21T07:32:36;6.20;;;3.28;;
34541;SDS011;20784;51.332;12.410;2022-08-21T07:35:11;9.48;;;3.63;;
34541;SDS011;20784;51.332;12.410;2022-08-21T07:40:02;13.05;;;3.70;;
34541;SDS011;20784;51.332;12.410;2022-08-21T07:42:29;7.22;;;3.50;;
34541;SDS011;20784;51.332;12.410;2022-08-21T07:44:57;6.88;;;2.70;;
34541;SDS011;20784;51.332;12.410;2022-08-21T07:47:31;11.93;;;2.97;;
34541;SDS011;20784;51.332;12.410;2022-08-21T07:50:08;6.32;;;3.00;;
34541;SDS011;20784;51.332;12.410;2022-08-21T07:52:39;10.50;;;3.10;;
34541;SDS011;20784;51.332;12.410;2022-08-21T07:55:11;13.77;;;3.08;;
34541;SDS011;20784;51.332;12.410;2022-08-21T07:57:52;7.47;;;2.95;;
34541;SDS011;20784;51.332;12.410;2022-08-21T08:00:50;8.70;;;3.05;;
34541;SDS011;20784;51.332;12.410;2022-08-21T08:03:16;15.60;;;3.45;;
34541;SDS011;20784;51.332;12.410;2022-08-21T08:05:52;14.05;;;2.88;;
34541;SDS011;20784;51.332;12.410;2022-08-21T08:08:25;9.35;;;2.90;;
34541;SDS011;20784;51.332;12.410;2022-08-21T08:10:54;6.80;;;2.75;;
34541;SDS011;20784;51.332;12.410;2022-08-21T08:13:37;4.53;;;2.28;;
34541;SDS011;20784;51.332;12.410;2022-08-21T08:16:10;9.82;;;2.95;;
34541;SDS011;20784;51.332;12.410;2022-08-21T08:18:43;6.00;;;2.42;;
34541;SDS011;20784;51.332;12.410;2022-08-21T08:21:13;10.45;;;2.40;;
34541;SDS011;20784;51.332;12.410;2022-08-21T08:23:39;9.70;;;2.90;;
34541;SDS011;20784;51.332;12.410;2022-08-21T08:26:36;5.82;;;2.17;;
34541;SDS011;20784;51.332;12.410;2022-08-21T08:29:19;9.88;;;2.53;;
34541;SDS011;20784;51.332;12.410;2022-08-21T08:35:07;7.85;;;2.70;;
34541;SDS011;20784;51.332;12.410;2022-08-21T08:41:05;10.65;;;2.63;;
34541;SDS011;20784;51.332;12.410;2022-08-21T08:44:29;8.93;;;2.60;;
34541;SDS011;20784;51.332;12.410;2022-08-21T08:56:41;7.60;;;2.22;;
34541;SDS011;20784;51.332;12.410;2022-08-21T08:59:26;8.07;;;2.20;;
34541;SDS011;20784;51.332;12.410;2022-08-21T09:02:07;6.93;;;2.10;;
34541;SDS011;20784;51.332;12.410;2022-08-21T09:04:41;9.32;;;2.70;;
34541;SDS011;20784;51.332;12.410;2022-08-21T09:07:12;6.57;;;2.20;;
34541;SDS011;20784;51.332;12.410;2022-08-21T09:10:02;6.63;;;1.90;;
34541;SDS011;20784;51.332;12.410;2022-08-21T09:18:20;5.70;;;2.15;;
34541;SDS011;20784;51.332;12.410;2022-08-21T09:21:11;9.10;;;2.30;;
34541;SDS011;20784;51.332;12.410;2022-08-21T09:24:27;11.17;;;2.87;;
34541;SDS011;20784;51.332;12.410;2022-08-21T09:29:57;6.80;;;2.17;;
34541;SDS011;20784;51.332;12.410;2022-08-21T09:32:28;6.22;;;2.45;;
34541;SDS011;20784;51.332;12.410;2022-08-21T09:35:01;6.30;;;2.33;;
34541;SDS011;20784;51.332;12.410;2022-08-21T09:37:45;11.43;;;2.38;;
34541;SDS011;20784;51.332;12.410;2022-08-21T09:46:22;7.57;;;2.55;;
34541;SDS011;20784;51.332;12.410;2022-08-21T09:48:54;8.98;;;2.28;;
34541;SDS011;20784;51.332;12.410;2022-08-21T09:53:58;7.13;;;2.33;;
34541;SDS011;20784;51.332;12.410;2022-08-21T09:56:31;6.78;;;2.33;;
34541;SDS011;20784;51.332;12.410;2022-08-21T09:59:29;4.78;;;2.15;;
34541;SDS011;20784;51.332;12.410;2022-08-21T10:05:00;10.93;;;2.45;;
34541;SDS011;20784;51.332;12.410;2022-08-21T10:07:32;5.13;;;2.33;;
34541;SDS011;20784;51.332;12.410;2022-08-21T10:15:20;7.80;;;2.13;;
34541;SDS011;20784;51.332;12.410;2022-08-21T10:17:56;8.05;;;2.05;;
34541;SDS011;20784;51.332;12.410;2022-08-21T10:23:47;10.30;;;2.25;;
34541;SDS011;20784;51.332;12.410;2022-08-21T10:26:43;5.65;;;1.85;;
34541;SDS011;20784;51.332;12.410;2022-08-21T10:32:17;12.00;;;2.20;;
34541;SDS011;20784;51.332;12.410;2022-08-21T10:35:12;9.85;;;2.50;;
34541;SDS011;20784;51.332;12.410;2022-08-21T10:40:59;4.70;;;2.15;;
34541;SDS011;20784;51.332;12.410;2022-08-21T10:43:45;6.93;;;2.00;;
34541;SDS011;20784;51.332;12.410;2022-08-21T10:48:59;7.43;;;2.22;;
34541;SDS011;20784;51.332;12.410;2022-08-21T10:51:46;7.45;;;2.28;;
34541;SDS011;20784;51.332;12.410;2022-08-21T10:57:19;10.02;;;2.55;;
34541;SDS011;20784;51.332;12.410;2022-08-21T11:00:07;5.82;;;2.20;;
34541;SDS011;20784;51.332;12.410;2022-08-21T11:05:54;6.65;;;2.17;;
34541;SDS011;20784;51.332;12.410;2022-08-21T11:08:38;9.73;;;2.00;;
34541;SDS011;20784;51.332;12.410;2022-08-21T11:11:35;6.93;;;2.00;;
34541;SDS011;20784;51.332;12.410;2022-08-21T11:17:23;6.57;;;1.92;;
34541;SDS011;20784;51.332;12.410;2022-08-21T11:20:20;9.05;;;2.60;;
34541;SDS011;20784;51.332;12.410;2022-08-21T11:23:21;10.00;;;2.33;;
34541;SDS011;20784;51.332;12.410;2022-08-21T11:26:38;8.90;;;1.75;;
34541;SDS011;20784;51.332;12.410;2022-08-21T11:29:25;6.05;;;2.25;;
34541;SDS011;20784;51.332;12.410;2022-08-21T11:46:53;6.60;;;1.98;;
34541;SDS011;20784;51.332;12.410;2022-08-21T11:52:32;8.55;;;2.33;;
34541;SDS011;20784;51.332;12.410;2022-08-21T11:58:22;10.88;;;1.80;;
34541;SDS011;20784;51.332;12.410;2022-08-21T12:01:17;8.15;;;2.13;;
34541;SDS011;20784;51.332;12.410;2022-08-21T12:04:05;6.35;;;1.80;;
34541;SDS011;20784;51.332;12.410;2022-08-21T12:07:28;8.27;;;2.10;;
34541;SDS011;20784;51.332;12.410;2022-08-21T12:09:55;8.13;;;2.05;;
34541;SDS011;20784;51.332;12.410;2022-08-21T12:15:36;7.65;;;1.90;;
34541;SDS011;20784;51.332;12.410;2022-08-21T12:18:22;5.57;;;1.92;;
34541;SDS011;20784;51.332;12.410;2022-08-21T12:24:01;5.20;;;2.05;;
34541;SDS011;20784;51.332;12.410;2022-08-21T12:26:52;6.22;;;2.05;;
34541;SDS011;20784;51.332;12.410;2022-08-21T12:29:23;9.15;;;2.10;;
34541;SDS011;20784;51.332;12.410;2022-08-21T12:37:40;10.32;;;2.20;;
34541;SDS011;20784;51.332;12.410;2022-08-21T12:41:41;6.70;;;2.10;;
34541;SDS011;20784;51.332;12.410;2022-08-21T12:43:35;11.35;;;2.42;;
34541;SDS011;20784;51.332;12.410;2022-08-21T12:46:30;5.85;;;2.03;;
34541;SDS011;20784;51.332;12.410;2022-08-21T12:50:06;6.88;;;1.85;;
34541;SDS011;20784;51.332;12.410;2022-08-21T12:52:59;6.55;;;1.83;;
34541;SDS011;20784;51.332;12.410;2022-08-21T12:55:42;8.95;;;2.22;;
34541;SDS011;20784;51.332;12.410;2022-08-21T12:58:21;6.78;;;1.95;;
34541;SDS011;20784;51.332;12.410;2022-08-21T13:00:59;6.22;;;2.08;;
34541;SDS011;20784;51.332;12.410;2022-08-21T13:06:41;7.93;;;2.17;;
34541;SDS011;20784;51.332;12.410;2022-08-21T13:09:10;7.47;;;2.15;;
34541;SDS011;20784;51.332;12.410;2022-08-21T13:11:47;5.55;;;2.38;;
34541;SDS011;20784;51.332;12.410;2022-08-21T13:14:35;6.60;;;2.10;;
34541;SDS011;20784;51.332;12.410;2022-08-21T13:17:09;8.48;;;2.20;;
34541;SDS011;20784;51.332;12.410;2022-08-21T13:20:00;6.22;;;1.92;;
34541;SDS011;20784;51.332;12.410;2022-08-21T13:22:29;5.40;;;1.80;;
34541;SDS011;20784;51.332;12.410;2022-08-21T13:25:02;10.45;;;2.13;;
34541;SDS011;20784;51.332;12.410;2022-08-21T13:27:37;5.95;;;2.20;;
34541;SDS011;20784;51.332;12.410;2022-08-21T13:30:19;7.95;;;2.33;;
34541;SDS011;20784;51.332;12.410;2022-08-21T13:32:51;7.32;;;2.10;;
34541;SDS011;20784;51.332;12.410;2022-08-21T13:38:03;4.60;;;2.05;;
34541;SDS011;20784;51.332;12.410;2022-08-21T13:40:41;6.40;;;2.30;;
34541;SDS011;20784;51.332;12.410;2022-08-21T13:43:35;12.98;;;2.65;;
34541;SDS011;20784;51.332;12.410;2022-08-21T13:46:14;4.78;;;1.90;;
34541;SDS011;20784;51.332;12.410;2022-08-21T13:48:43;6.57;;;2.42;;
34541;SDS011;20784;51.332;12.410;2022-08-21T13:51:14;9.65;;;2.72;;
34541;SDS011;20784;51.332;12.410;2022-08-21T13:59:03;9.73;;;2.10;;
34541;SDS011;20784;51.332;12.410;2022-08-21T14:01:36;7.72;;;2.38;;
34541;SDS011;20784;51.332;12.410;2022-08-21T14:04:36;5.70;;;2.00;;
34541;SDS011;20784;51.332;12.410;2022-08-21T14:07:19;4.68;;;1.92;;
34541;SDS011;20784;51.332;12.410;2022-08-21T14:10:18;5.68;;;2.15;;
34541;SDS011;20784;51.332;12.410;2022-08-21T14:12:55;8.68;;;2.33;;
34541;SDS011;20784;51.332;12.410;2022-08-21T14:15:43;7.38;;;2.30;;
34541;SDS011;20784;51.332;12.410;2022-08-21T14:18:29;9.65;;;2.00;;
34541;SDS011;20784;51.332;12.410;2022-08-21T14:21:09;8.35;;;2.13;;
34541;SDS011;20784;51.332;12.410;2022-08-21T14:23:45;7.32;;;2.13;;
34541;SDS011;20784;51.332;12.410;2022-08-21T14:26:35;6.43;;;1.83;;
34541;SDS011;20784;51.332;12.410;2022-08-21T14:29:16;7.18;;;2.22;;
34541;SDS011;20784;51.332;12.410;2022-08-21T14:31:48;8.55;;;2.30;;
34541;SDS011;20784;51.332;12.410;2022-08-21T14:34:24;11.02;;;2.22;;
34541;SDS011;20784;51.332;12.410;2022-08-21T14:36:54;8.32;;;2.20;;
34541;SDS011;20784;51.332;12.410;2022-08-21T14:39:26;11.27;;;2.50;;
34541;SDS011;20784;51.332;12.410;2022-08-21T14:42:14;7.30;;;1.90;;
34541;SDS011;20784;51.332;12.410;2022-08-21T14:44:42;12.20;;;2.38;;
34541;SDS011;20784;51.332;12.410;2022-08-21T14:47:09;5.70;;;1.88;;
34541;SDS011;20784;51.332;12.410;2022-08-21T14:49:37;12.25;;;2.28;;
34541;SDS011;20784;51.332;12.410;2022-08-21T14:52:02;7.68;;;2.25;;
34541;SDS011;20784;51.332;12.410;2022-08-21T14:54:32;10.90;;;2.13;;
34541;SDS011;20784;51.332;12.410;2022-08-21T14:56:59;6.18;;;2.17;;
34541;SDS011;20784;51.332;12.410;2022-08-21T14:59:28;6.55;;;2.20;;
34541;SDS011;20784;51.332;12.410;2022-08-21T15:01:57;5.57;;;2.20;;
34541;SDS011;20784;51.332;12.410;2022-08-21T15:04:31;8.45;;;3.17;;
34541;SDS011;20784;51.332;12.410;2022-08-21T15:07:01;8.93;;;3.47;;
34541;SDS011;20784;51.332;12.410;2022-08-21T15:09:26;10.77;;;2.80;;
34541;SDS011;20784;51.332;12.410;2022-08-21T15:11:59;6.88;;;2.25;;
34541;SDS011;20784;51.332;12.410;2022-08-21T15:14:27;7.15;;;2.47;;
34541;SDS011;20784;51.332;12.410;2022-08-21T15:16:55;5.55;;;2.13;;
34541;SDS011;20784;51.332;12.410;2022-08-21T15:19:21;4.95;;;2.03;;
34541;SDS011;20784;51.332;12.410;2022-08-21T15:21:48;8.90;;;1.92;;
34541;SDS011;20784;51.332;12.410;2022-08-21T15:24:16;9.70;;;2.28;;
34541;SDS011;20784;51.332;12.410;2022-08-21T15:26:47;6.13;;;1.95;;
34541;SDS011;20784;51.332;12.410;2022-08-21T15:29:12;6.57;;;2.40;;
34541;SDS011;20784;51.332;12.410;2022-08-21T15:31:49;7.10;;;2.45;;
34541;SDS011;20784;51.332;12.410;2022-08-21T15:34:33;8.07;;;1.95;;
34541;SDS011;20784;51.332;12.410;2022-08-21T15:36:59;13.10;;;2.30;;
34541;SDS011;20784;51.332;12.410;2022-08-21T15:39:25;7.35;;;2.83;;
34541;SDS011;20784;51.332;12.410;2022-08-21T15:41:51;7.18;;;2.35;;
34541;SDS011;20784;51.332;12.410;2022-08-21T15:44:25;7.35;;;2.05;;
34541;SDS011;20784;51.332;12.410;2022-08-21T15:47:16;10.07;;;2.35;;
34541;SDS011;20784;51.332;12.410;2022-08-21T15:53:12;9.25;;;2.45;;
34541;SDS011;20784;51.332;12.410;2022-08-21T15:56:14;7.03;;;2.20;;
34541;SDS011;20784;51.332;12.410;2022-08-21T15:58:49;18.27;;;2.60;;
34541;SDS011;20784;51.332;12.410;2022-08-21T16:01:25;10.27;;;2.97;;
34541;SDS011;20784;51.332;12.410;2022-08-21T16:03:58;6.13;;;2.58;;
34541;SDS011;20784;51.332;12.410;2022-08-21T16:09:07;7.00;;;2.30;;
34541;SDS011;20784;51.332;12.410;2022-08-21T16:12:00;6.00;;;2.20;;
34541;SDS011;20784;51.332;12.410;2022-08-21T16:14:57;9.93;;;2.47;;
34541;SDS011;20784;51.332;12.410;2022-08-21T16:20:45;5.82;;;2.47;;
34541;SDS011;20784;51.332;12.410;2022-08-21T16:24:25;7.03;;;2.20;;
34541;SDS011;20784;51.332;12.410;2022-08-21T16:36:33;5.85;;;2.05;;
34541;SDS011;20784;51.332;12.410;2022-08-21T16:43:10;9.57;;;2.70;;
34541;SDS011;20784;51.332;12.410;2022-08-21T16:46:15;8.63;;;2.70;;
34541;SDS011;20784;51.332;12.410;2022-08-21T16:51:51;6.47;;;2.33;;
34541;SDS011;20784;51.332;12.410;2022-08-21T16:54:25;13.07;;;3.15;;
34541;SDS011;20784;51.332;12.410;2022-08-21T16:59:44;7.07;;;2.88;;
34541;SDS011;20784;51.332;12.410;2022-08-21T17:02:18;16.75;;;3.60;;
34541;SDS011;20784;51.332;12.410;2022-08-21T17:04:55;5.70;;;2.40;;
34541;SDS011;20784;51.332;12.410;2022-08-21T17:07:25;5.97;;;2.45;;
34541;SDS011;20784;51.332;12.410;2022-08-21T17:09:57;6.85;;;2.40;;
34541;SDS011;20784;51.332;12.410;2022-08-21T17:12:28;8.02;;;2.70;;
34541;SDS011;20784;51.332;12.410;2022-08-21T17:15:11;11.02;;;2.95;;
34541;SDS011;20784;51.332;12.410;2022-08-21T17:17:45;8.75;;;2.42;;
34541;SDS011;20784;51.332;12.410;2022-08-21T17:20:16;9.63;;;2.40;;
34541;SDS011;20784;51.332;12.410;2022-08-21T17:22:46;11.88;;;6.18;;
34541;SDS011;20784;51.332;12.410;2022-08-21T17:25:17;11.10;;;5.30;;
34541;SDS011;20784;51.332;12.410;2022-08-21T17:27:58;58.38;;;41.70;;
34541;SDS011;20784;51.332;12.410;2022-08-21T17:30:32;46.53;;;23.13;;
34541;SDS011;20784;51.332;12.410;2022-08-21T17:33:16;26.17;;;16.13;;
34541;SDS011;20784;51.332;12.410;2022-08-21T17:36:11;13.45;;;5.90;;
34541;SDS011;20784;51.332;12.410;2022-08-21T17:38:45;14.50;;;7.47;;
34541;SDS011;20784;51.332;12.410;2022-08-21T17:42:04;8.75;;;4.85;;
34541;SDS011;20784;51.332;12.410;2022-08-21T17:48:26;9.95;;;3.53;;
34541;SDS011;20784;51.332;12.410;2022-08-21T17:51:03;19.83;;;4.07;;
34541;SDS011;20784;51.332;12.410;2022-08-21T17:53:31;8.57;;;3.03;;
34541;SDS011;20784;51.332;12.410;2022-08-21T17:55:59;8.35;;;3.30;;
34541;SDS011;20784;51.332;12.410;2022-08-21T18:05:50;9.68;;;3.58;;
34541;SDS011;20784;51.332;12.410;2022-08-21T18:08:22;8.98;;;3.47;;
34541;SDS011;20784;51.332;12.410;2022-08-21T18:11:08;8.77;;;2.85;;
34541;SDS011;20784;51.332;12.410;2022-08-21T18:14:05;7.57;;;3.17;;
34541;SDS011;20784;51.332;12.410;2022-08-21T18:17:08;10.77;;;3.60;;
34541;SDS011;20784;51.332;12.410;2022-08-21T18:19:44;9.43;;;3.55;;
34541;SDS011;20784;51.332;12.410;2022-08-21T18:22:12;5.45;;;2.90;;
34541;SDS011;20784;51.332;12.410;2022-08-21T18:27:50;8.95;;;3.05;;
34541;SDS011;20784;51.332;12.410;2022-08-21T18:30:26;10.00;;;2.83;;
34541;SDS011;20784;51.332;12.410;2022-08-21T18:33:03;10.35;;;3.40;;
34541;SDS011;20784;51.332;12.410;2022-08-21T18:35:34;12.70;;;3.60;;
34541;SDS011;20784;51.332;12.410;2022-08-21T18:38:11;6.88;;;3.30;;
34541;SDS011;20784;51.332;12.410;2022-08-21T18:40:43;12.60;;;3.25;;
34541;SDS011;20784;51.332;12.410;2022-08-21T18:43:15;6.68;;;2.90;;
34541;SDS011;20784;51.332;12.410;2022-08-21T18:45:55;9.40;;;3.95;;
34541;SDS011;20784;51.332;12.410;2022-08-21T18:48:40;9.50;;;3.83;;
34541;SDS011;20784;51.332;12.410;2022-08-21T18:51:24;11.60;;;4.03;;
34541;SDS011;20784;51.332;12.410;2022-08-21T18:54:06;16.13;;;4.03;;
34541;SDS011;20784;51.332;12.410;2022-08-21T18:57:00;8.27;;;3.25;;
34541;SDS011;20784;51.332;12.410;2022-08-21T18:59:36;6.07;;;2.83;;
34541;SDS011;20784;51.332;12.410;2022-08-21T19:05:03;8.00;;;2.95;;
34541;SDS011;20784;51.332;12.410;2022-08-21T19:11:37;10.95;;;3.10;;
34541;SDS011;20784;51.332;12.410;2022-08-21T19:15:20;8.90;;;3.33;;
34541;SDS011;20784;51.332;12.410;2022-08-21T19:25:35;7.82;;;3.10;;
34541;SDS011;20784;51.332;12.410;2022-08-21T19:36:25;6.53;;;2.72;;
34541;SDS011;20784;51.332;12.410;2022-08-21T19:39:31;7.70;;;2.72;;
34541;SDS011;20784;51.332;12.410;2022-08-21T19:42:02;6.80;;;2.53;;
34541;SDS011;20784;51.332;12.410;2022-08-21T19:45:11;5.97;;;2.70;;
34541;SDS011;20784;51.332;12.410;2022-08-21T19:47:53;7.88;;;2.50;;
34541;SDS011;20784;51.332;12.410;2022-08-21T19:56:57;7.80;;;3.10;;
34541;SDS011;20784;51.332;12.410;2022-08-21T19:59:40;5.93;;;2.80;;
34541;SDS011;20784;51.332;12.410;2022-08-21T20:02:50;14.10;;;2.95;;
34541;SDS011;20784;51.332;12.410;2022-08-21T20:05:27;14.93;;;3.40;;
34541;SDS011;20784;51.332;12.410;2022-08-21T20:08:47;11.15;;;2.88;;
34541;SDS011;20784;51.332;12.410;2022-08-21T20:50:38;7.50;;;2.95;;
34541;SDS011;20784;51.332;12.410;2022-08-21T20:58:10;15.77;;;3.47;;
34541;SDS011;20784;51.332;12.410;2022-08-21T21:04:11;8.50;;;2.80;;
34541;SDS011;20784;51.332;12.410;2022-08-21T21:11:01;12.18;;;3.45;;
34541;SDS011;20784;51.332;12.410;2022-08-21T21:14:59;8.77;;;3.08;;
34541;SDS011;20784;51.332;12.410;2022-08-21T21:21:17;12.20;;;3.72;;
34541;SDS011;20784;51.332;12.410;2022-08-21T21:27:38;9.30;;;3.03;;
34541;SDS011;20784;51.332;12.410;2022-08-21T21:34:21;9.20;;;3.67;;
34541;SDS011;20784;51.332;12.410;2022-08-21T21:37:41;10.82;;;3.83;;
34541;SDS011;20784;51.332;12.410;2022-08-21T21:59:56;8.23;;;3.58;;
34541;SDS011;20784;51.332;12.410;2022-08-21T22:09:34;5.95;;;3.58;;
34541;SDS011;20784;51.332;12.410;2022-08-21T22:15:42;8.98;;;3.13;;
34541;SDS011;20784;51.332;12.410;2022-08-21T22:21:48;6.88;;;3.10;;
34541;SDS011;20784;51.332;12.410;2022-08-21T22:24:31;8.27;;;3.30;;